createdAt,value
2019-06-26T00:02:12.847Z,68.70
2019-06-26T00:04:45.286Z,68.40
2019-06-26T00:07:17.582Z,68.20
2019-06-26T00:09:51.101Z,67.80
2019-06-26T00:12:23.181Z,68.50
2019-06-26T00:14:55.499Z,68.60
2019-06-26T00:17:28.332Z,68.90
2019-06-26T00:20:00.586Z,68.90
2019-06-26T00:22:33.512Z,69.10
2019-06-26T00:25:06.519Z,69.50
2019-06-26T00:27:37.890Z,69.10
2019-06-26T00:30:11.058Z,69.10
2019-06-26T00:32:44.082Z,69.00
2019-06-26T00:35:17.393Z,69.00
2019-06-26T00:37:49.352Z,68.70
2019-06-26T00:40:21.578Z,68.90
2019-06-26T00:42:54.101Z,69.20
2019-06-26T00:45:26.951Z,69.00
2019-06-26T00:47:59.141Z,69.00
2019-06-26T00:50:31.576Z,69.20
2019-06-26T00:53:03.226Z,69.30
2019-06-26T00:55:35.446Z,69.60
2019-06-26T00:58:07.639Z,69.60
2019-06-26T01:00:43.897Z,69.70
2019-06-26T01:03:16.771Z,69.60
2019-06-26T01:05:49.608Z,69.80
2019-06-26T01:08:21.706Z,70.60
2019-06-26T01:10:53.966Z,70.20
2019-06-26T01:13:26.631Z,70.30
2019-06-26T01:15:58.649Z,70.00
2019-06-26T01:18:30.696Z,69.90
2019-06-26T01:21:02.971Z,70.00
2019-06-26T01:23:34.830Z,69.60
2019-06-26T01:26:07.051Z,69.80
2019-06-26T01:28:39.161Z,70.00
2019-06-26T01:31:11.516Z,69.80
2019-06-26T01:33:43.122Z,70.10
2019-06-26T01:36:16.235Z,70.00
2019-06-26T01:38:48.456Z,69.70
2019-06-26T01:41:20.626Z,69.30
2019-06-26T01:43:53.436Z,69.60
2019-06-26T01:46:26.741Z,69.80
2019-06-26T01:48:58.983Z,69.20
2019-06-26T01:51:31.414Z,69.10
2019-06-26T01:54:04.256Z,69.00
2019-06-26T01:56:37.542Z,69.00
2019-06-26T01:59:09.398Z,69.00
2019-06-26T02:01:42.131Z,69.00
2019-06-26T02:04:15.664Z,69.20
2019-06-26T02:06:48.969Z,69.50
2019-06-26T02:09:21.989Z,70.10
2019-06-26T02:11:54.141Z,70.40
2019-06-26T02:14:31.577Z,70.90
2019-06-26T02:17:01.306Z,71.00
2019-06-26T02:19:34.601Z,71.00
2019-06-26T02:22:07.156Z,71.10
2019-06-26T02:24:39.645Z,71.00
2019-06-26T02:27:11.846Z,70.90
2019-06-26T02:29:45.161Z,69.30
2019-06-26T02:32:16.893Z,68.80
2019-06-26T02:34:49.318Z,69.20
2019-06-26T02:37:21.357Z,68.60
2019-06-26T02:39:53.835Z,68.40
2019-06-26T02:42:26.797Z,68.00
2019-06-26T02:44:59.326Z,67.70
2019-06-26T02:47:31.275Z,67.10
2019-06-26T02:50:03.529Z,67.00
2019-06-26T02:52:36.284Z,67.00
2019-06-26T02:55:08.727Z,67.10
2019-06-26T02:57:40.245Z,66.80
2019-06-26T03:00:12.132Z,67.00
2019-06-26T03:02:44.937Z,67.90
2019-06-26T03:05:17.995Z,68.20
2019-06-26T03:07:50.980Z,68.60
2019-06-26T03:10:23.919Z,68.50
2019-06-26T03:12:56.330Z,68.70
2019-06-26T03:15:29.491Z,69.10
2019-06-26T03:18:02.161Z,69.30
2019-06-26T03:20:36.386Z,69.40
2019-06-26T03:23:08.209Z,69.30
2019-06-26T03:25:40.540Z,69.40
2019-06-26T03:28:12.845Z,69.50
2019-06-26T03:30:45.807Z,69.40
2019-06-26T03:33:18.053Z,69.60
2019-06-26T03:35:50.891Z,69.50
2019-06-26T03:38:23.506Z,69.60
2019-06-26T03:40:56.367Z,69.90
2019-06-26T03:43:28.091Z,70.50
2019-06-26T03:45:59.978Z,70.50
2019-06-26T03:48:32.485Z,70.90
2019-06-26T03:51:05.191Z,70.90
2019-06-26T03:53:37.389Z,70.90
2019-06-26T03:56:10.491Z,71.30
2019-06-26T03:58:42.786Z,72.00
2019-06-26T04:01:15.430Z,71.30
2019-06-26T04:03:47.646Z,71.30
2019-06-26T04:06:19.869Z,71.20
2019-06-26T04:08:52.390Z,71.40
2019-06-26T04:11:25.431Z,71.30
2019-06-26T04:13:57.891Z,71.40
2019-06-26T04:16:30.485Z,71.80
2019-06-26T04:19:02.670Z,71.80
2019-06-26T04:21:35.506Z,72.00
2019-06-26T04:24:07.935Z,72.50
2019-06-26T04:26:40.072Z,72.40
2019-06-26T04:29:12.965Z,72.60
2019-06-26T04:31:45.065Z,73.00
2019-06-26T04:34:17.511Z,73.30
2019-06-26T04:36:50.973Z,73.60
2019-06-26T04:39:23.779Z,73.90
2019-06-26T04:41:55.871Z,74.10
2019-06-26T04:44:29.351Z,74.10
2019-06-26T04:47:01.781Z,74.60
2019-06-26T04:49:33.760Z,75.00
2019-06-26T04:52:05.951Z,74.60
2019-06-26T04:54:38.351Z,75.20
2019-06-26T04:57:10.557Z,75.00
2019-06-26T04:59:43.386Z,75.10
2019-06-26T05:02:14.983Z,75.40
2019-06-26T05:04:47.787Z,75.00
2019-06-26T05:07:20.382Z,74.50
2019-06-26T05:09:52.249Z,74.30
2019-06-26T05:12:24.740Z,73.10
2019-06-26T05:14:57.286Z,71.30
2019-06-26T05:17:29.722Z,68.90
2019-06-26T05:20:02.441Z,71.00
2019-06-26T05:22:35.326Z,70.00
2019-06-26T05:25:07.516Z,69.20
2019-06-26T05:27:38.846Z,67.90
2019-06-26T05:30:11.922Z,68.00
2019-06-26T05:32:43.851Z,69.90
2019-06-26T05:35:16.647Z,72.10
2019-06-26T05:37:48.507Z,73.50
2019-06-26T05:40:21.356Z,73.60
2019-06-26T05:42:53.605Z,73.50
2019-06-26T05:45:25.887Z,73.50
2019-06-26T05:47:57.731Z,73.90
2019-06-26T05:50:30.052Z,73.20
2019-06-26T05:53:02.217Z,73.50
2019-06-26T05:55:34.686Z,72.80
2019-06-26T05:58:07.916Z,72.40
2019-06-26T06:00:40.811Z,71.70
2019-06-26T06:03:12.926Z,68.00
2019-06-26T06:05:45.375Z,66.00
2019-06-26T06:08:17.086Z,65.80
2019-06-26T06:10:49.517Z,65.60
2019-06-26T06:13:22.845Z,66.00
2019-06-26T06:15:56.081Z,66.50
2019-06-26T06:18:27.621Z,66.70
2019-06-26T06:21:00.071Z,67.20
2019-06-26T06:23:32.566Z,64.50
2019-06-26T06:26:04.639Z,63.90
2019-06-26T06:28:36.561Z,63.20
2019-06-26T06:31:09.217Z,62.90
2019-06-26T06:33:40.861Z,60.10
2019-06-26T06:36:12.865Z,59.20
2019-06-26T06:38:45.030Z,57.80
2019-06-26T06:41:17.486Z,57.10
2019-06-26T06:43:50.123Z,57.40
2019-06-26T06:46:22.313Z,57.50
2019-06-26T06:48:54.726Z,57.50
2019-06-26T06:51:26.637Z,57.80
2019-06-26T06:53:59.047Z,57.10
2019-06-26T06:56:31.941Z,56.40
2019-06-26T06:59:04.781Z,56.90
2019-06-26T07:01:37.511Z,56.80
2019-06-26T07:04:09.965Z,53.40
2019-06-26T07:06:43.004Z,52.90
2019-06-26T07:09:15.303Z,52.30
2019-06-26T07:11:48.546Z,53.30
2019-06-26T07:14:21.315Z,52.30
2019-06-26T07:16:53.852Z,52.50
2019-06-26T07:19:25.900Z,50.90
2019-06-26T07:21:58.241Z,52.60
2019-06-26T07:24:30.311Z,51.70
2019-06-26T07:27:03.062Z,51.60
2019-06-26T07:29:35.481Z,51.60
2019-06-26T07:32:07.590Z,51.80
2019-06-26T07:34:40.891Z,50.80
2019-06-26T07:37:13.746Z,50.60
2019-06-26T07:39:44.886Z,59.10
2019-06-26T07:42:17.330Z,65.20
2019-06-26T07:44:49.201Z,66.20
2019-06-26T07:47:25.148Z,65.90
2019-06-26T07:49:55.956Z,64.90
2019-06-26T07:52:28.392Z,64.80
2019-06-26T07:55:00.430Z,63.90
2019-06-26T07:57:32.782Z,64.30
2019-06-26T08:00:04.596Z,64.70
2019-06-26T08:02:37.257Z,64.30
2019-06-26T08:05:10.318Z,63.40
2019-06-26T08:07:42.008Z,63.60
2019-06-26T08:10:15.127Z,64.60
2019-06-26T08:12:47.919Z,64.60
2019-06-26T08:15:21.888Z,65.60
2019-06-26T08:18:00.400Z,65.40
2019-06-26T08:20:28.880Z,63.90
2019-06-26T08:23:01.896Z,64.40
2019-06-26T08:25:33.745Z,64.70
2019-06-26T08:28:05.792Z,65.70
2019-06-26T08:30:39.594Z,64.90
2019-06-26T08:33:12.467Z,64.80
2019-06-26T08:35:44.366Z,63.90
2019-06-26T08:38:17.512Z,66.10
2019-06-26T08:40:50.614Z,65.90
2019-06-26T08:43:24.306Z,66.10
2019-06-26T08:45:56.357Z,66.60
2019-06-26T08:48:39.762Z,66.40
2019-06-26T08:51:02.889Z,65.50
2019-06-26T08:53:34.857Z,65.30
2019-06-26T08:56:07.012Z,65.10
2019-06-26T08:58:39.787Z,65.50
2019-06-26T09:01:12.586Z,65.70
2019-06-26T09:03:44.230Z,65.30
2019-06-26T09:06:16.977Z,66.70
2019-06-26T09:08:50.327Z,66.30
2019-06-26T09:11:22.471Z,66.10
2019-06-26T09:13:55.341Z,65.30
2019-06-26T09:16:27.551Z,67.00
2019-06-26T09:18:59.699Z,67.30
2019-06-26T09:21:32.078Z,66.40
2019-06-26T09:24:04.474Z,66.70
2019-06-26T09:26:36.513Z,66.40
2019-06-26T09:29:08.878Z,66.50
2019-06-26T09:31:40.197Z,64.50
2019-06-26T09:34:12.742Z,65.20
2019-06-26T09:36:44.416Z,64.70
2019-06-26T09:39:17.142Z,65.60
2019-06-26T09:41:49.503Z,65.70
2019-06-26T09:44:21.562Z,65.20
2019-06-26T09:46:54.090Z,65.00
2019-06-26T09:49:26.195Z,63.60
2019-06-26T09:51:59.260Z,64.40
2019-06-26T09:54:31.460Z,64.20
2019-06-26T09:57:04.232Z,65.10
2019-06-26T09:59:36.993Z,63.60
2019-06-26T10:02:09.566Z,64.50
2019-06-26T10:04:41.712Z,62.00
2019-06-26T10:07:14.467Z,63.60
2019-06-26T10:09:46.755Z,62.90
2019-06-26T10:12:19.733Z,62.20
2019-06-26T10:14:52.135Z,61.10
2019-06-26T10:17:24.400Z,61.90
2019-06-26T10:19:57.265Z,61.50
2019-06-26T10:22:29.910Z,60.60
2019-06-26T10:25:02.542Z,60.60
2019-06-26T10:27:35.450Z,60.40
2019-06-26T10:30:08.558Z,59.70
2019-06-26T10:32:41.791Z,59.50
2019-06-26T10:35:14.357Z,59.60
2019-06-26T10:37:46.420Z,59.20
2019-06-26T10:40:18.367Z,60.90
2019-06-26T10:42:51.101Z,61.10
2019-06-26T10:45:24.706Z,61.00
2019-06-26T10:47:56.990Z,60.20
2019-06-26T10:50:29.710Z,59.10
2019-06-26T10:53:02.448Z,58.50
2019-06-26T10:55:35.246Z,58.40
2019-06-26T10:58:07.911Z,58.00
2019-06-26T11:00:40.219Z,59.00
2019-06-26T11:03:12.961Z,58.30
2019-06-26T11:05:45.436Z,59.10
2019-06-26T11:08:17.836Z,58.30
2019-06-26T11:10:50.670Z,56.90
2019-06-26T11:13:24.296Z,57.70
2019-06-26T11:15:56.851Z,58.00
2019-06-26T11:18:28.910Z,57.30
2019-06-26T11:21:01.496Z,56.90
2019-06-26T11:23:34.017Z,56.70
2019-06-26T11:26:06.348Z,56.00
2019-06-26T11:28:38.720Z,55.60
2019-06-26T11:31:11.970Z,55.70
2019-06-26T11:33:44.235Z,55.50
2019-06-26T11:36:16.780Z,56.00
2019-06-26T11:38:49.325Z,56.00
2019-06-26T11:41:21.728Z,56.10
2019-06-26T11:43:53.939Z,56.60
2019-06-26T11:46:26.055Z,56.90
2019-06-26T11:48:58.610Z,56.80
2019-06-26T11:51:31.651Z,56.50
2019-06-26T11:54:04.039Z,56.80
2019-06-26T11:56:36.389Z,56.40
2019-06-26T11:59:08.614Z,56.60
2019-06-26T12:01:41.043Z,57.00
2019-06-26T12:04:14.139Z,56.50
2019-06-26T12:06:46.635Z,56.00
2019-06-26T12:09:19.272Z,56.20
2019-06-26T12:11:52.275Z,56.50
2019-06-26T12:14:24.865Z,56.20
2019-06-26T12:16:57.935Z,56.10
2019-06-26T12:19:30.869Z,55.50
2019-06-26T12:22:03.402Z,55.00
2019-06-26T12:24:35.819Z,55.10
2019-06-26T12:27:07.939Z,54.70
2019-06-26T12:29:39.721Z,55.10
2019-06-26T12:32:12.137Z,55.20
2019-06-26T12:34:45.396Z,55.10
2019-06-26T12:37:17.534Z,55.00
2019-06-26T12:39:50.547Z,54.50
2019-06-26T12:42:22.198Z,54.70
2019-06-26T12:44:53.734Z,54.30
2019-06-26T12:47:26.319Z,54.60
2019-06-26T12:49:58.415Z,54.60
2019-06-26T12:52:30.457Z,54.40
2019-06-26T12:55:02.539Z,54.30
2019-06-26T12:57:35.605Z,54.10
2019-06-26T13:00:08.090Z,54.00
2019-06-26T13:02:40.053Z,53.90
2019-06-26T13:05:12.826Z,54.00
2019-06-26T13:07:45.404Z,54.00
2019-06-26T13:10:18.514Z,53.20
2019-06-26T13:12:50.614Z,52.90
2019-06-26T13:15:23.135Z,53.10
2019-06-26T13:17:56.101Z,51.80
2019-06-26T13:20:28.788Z,52.10
2019-06-26T13:23:01.393Z,51.30
2019-06-26T13:25:34.200Z,51.50
2019-06-26T13:28:06.309Z,51.20
2019-06-26T13:30:41.019Z,51.40
2019-06-26T13:33:13.713Z,52.40
2019-06-26T13:35:46.365Z,51.40
2019-06-26T13:38:20.194Z,50.50
2019-06-26T13:40:53.159Z,49.90
2019-06-26T13:43:25.324Z,48.90
2019-06-26T13:45:58.840Z,48.90
2019-06-26T13:48:31.014Z,49.00
2019-06-26T13:51:09.421Z,48.50
2019-06-26T13:53:37.522Z,47.40
2019-06-26T13:56:10.780Z,48.20
2019-06-26T13:58:43.650Z,48.10
2019-06-26T14:01:15.700Z,48.60
2019-06-26T14:03:48.075Z,46.60
2019-06-26T14:06:19.812Z,46.60
2019-06-26T14:08:51.989Z,46.90
2019-06-26T14:11:23.933Z,47.40
2019-06-26T14:13:55.815Z,47.10
2019-06-26T14:16:29.944Z,45.80
2019-06-26T14:19:02.468Z,45.70
2019-06-26T14:21:34.984Z,46.20
2019-06-26T14:24:07.563Z,45.10
2019-06-26T14:26:40.156Z,45.40
2019-06-26T14:29:20.937Z,46.20
2019-06-26T14:31:45.903Z,45.80
2019-06-26T14:34:19.167Z,46.30
2019-06-26T14:36:51.213Z,45.10
2019-06-26T14:39:23.964Z,45.00
2019-06-26T14:41:56.189Z,45.30
2019-06-26T14:44:29.657Z,45.40
2019-06-26T14:47:03.023Z,43.80
2019-06-26T14:49:34.876Z,43.10
2019-06-26T14:52:06.188Z,43.30
2019-06-26T14:54:38.260Z,43.00
2019-06-26T14:57:11.749Z,43.70
2019-06-26T14:59:43.400Z,43.30
2019-06-26T15:02:15.888Z,43.90
2019-06-26T15:04:49.231Z,43.60
2019-06-26T15:07:21.970Z,43.50
2019-06-26T15:09:53.736Z,43.80
2019-06-26T15:12:27.451Z,44.10
2019-06-26T15:15:00.181Z,43.30
2019-06-26T15:17:33.010Z,42.80
2019-06-26T15:20:06.051Z,43.20
2019-06-26T15:22:38.505Z,43.20
2019-06-26T15:25:10.950Z,43.50
2019-06-26T15:27:43.555Z,43.60
2019-06-26T15:30:15.395Z,43.90
2019-06-26T15:32:47.922Z,43.20
2019-06-26T15:35:20.083Z,42.70
2019-06-26T15:37:52.846Z,43.20
2019-06-26T15:40:25.453Z,43.00
2019-06-26T15:42:57.392Z,43.00
2019-06-26T15:45:30.356Z,43.40
2019-06-26T15:48:02.915Z,43.60
2019-06-26T15:50:35.016Z,43.70
2019-06-26T15:53:07.785Z,44.40
2019-06-26T15:55:40.882Z,43.40
2019-06-26T15:58:13.280Z,43.20
2019-06-26T16:00:45.550Z,43.50
2019-06-26T16:03:18.090Z,44.60
2019-06-26T16:05:49.369Z,44.00
2019-06-26T16:08:22.470Z,44.20
2019-06-26T16:10:55.319Z,44.20
2019-06-26T16:13:27.199Z,43.90
2019-06-26T16:15:59.702Z,43.80
2019-06-26T16:18:36.708Z,43.40
2019-06-26T16:21:08.213Z,44.20
2019-06-26T16:23:41.263Z,44.20
2019-06-26T16:26:12.697Z,43.70
2019-06-26T16:28:45.138Z,42.50
2019-06-26T16:31:17.787Z,41.70
2019-06-26T16:33:50.458Z,41.40
2019-06-26T16:36:23.659Z,42.70
2019-06-26T16:38:56.459Z,42.70
2019-06-26T16:41:29.064Z,42.80
2019-06-26T16:44:01.468Z,42.60
2019-06-26T16:46:34.535Z,41.10
2019-06-26T16:49:06.778Z,40.50
2019-06-26T16:51:39.178Z,40.20
2019-06-26T16:54:12.218Z,40.50
2019-06-26T16:56:45.018Z,40.20
2019-06-26T16:59:17.033Z,38.20
2019-06-26T17:01:49.997Z,38.70
2019-06-26T17:04:22.478Z,39.30
2019-06-26T17:06:55.137Z,38.90
2019-06-26T17:09:27.294Z,39.40
2019-06-26T17:12:00.239Z,39.20
2019-06-26T17:14:33.318Z,39.20
2019-06-26T17:17:05.222Z,38.70
2019-06-26T17:19:37.458Z,38.40
2019-06-26T17:22:10.383Z,38.00
2019-06-26T17:24:42.733Z,38.30
2019-06-26T17:27:15.598Z,38.00
2019-06-26T17:29:48.573Z,37.70
2019-06-26T17:32:19.989Z,37.80
2019-06-26T17:34:52.669Z,38.60
2019-06-26T17:37:25.077Z,38.00
2019-06-26T17:39:56.793Z,38.00
2019-06-26T17:42:29.618Z,38.70
2019-06-26T17:45:01.679Z,39.20
2019-06-26T17:47:34.659Z,39.50
2019-06-26T17:50:07.886Z,39.20
2019-06-26T17:52:40.460Z,40.40
2019-06-26T17:55:13.104Z,40.30
2019-06-26T17:57:47.576Z,40.20
2019-06-26T18:00:20.401Z,46.60
2019-06-26T18:02:53.578Z,47.50
2019-06-26T18:05:26.178Z,51.20
2019-06-26T18:07:58.022Z,51.20
2019-06-26T18:10:30.538Z,51.80
2019-06-26T18:13:03.365Z,52.60
2019-06-26T18:15:35.687Z,55.30
2019-06-26T18:18:08.513Z,55.20
2019-06-26T18:20:41.328Z,55.80
2019-06-26T18:23:14.058Z,56.60
2019-06-26T18:25:53.818Z,56.60
2019-06-26T18:28:20.642Z,56.70
2019-06-26T18:30:53.698Z,57.40
2019-06-26T18:33:26.782Z,57.50
2019-06-26T18:35:58.683Z,57.40
2019-06-26T18:38:30.669Z,58.10
2019-06-26T18:41:02.768Z,59.10
2019-06-26T18:43:35.473Z,59.60
2019-06-26T18:46:08.144Z,59.70
2019-06-26T18:48:40.553Z,60.40
2019-06-26T18:51:13.516Z,61.60
2019-06-26T18:53:53.513Z,62.10
2019-06-26T18:56:19.599Z,62.60
2019-06-26T18:58:52.307Z,63.00
2019-06-26T19:01:24.569Z,63.50
2019-06-26T19:03:57.021Z,63.50
2019-06-26T19:06:30.510Z,63.60
2019-06-26T19:09:02.899Z,63.40
2019-06-26T19:11:35.335Z,63.30
2019-06-26T19:14:08.033Z,62.80
2019-06-26T19:16:40.129Z,62.40
2019-06-26T19:19:12.489Z,62.10
2019-06-26T19:21:44.202Z,61.70
2019-06-26T19:24:16.620Z,61.10
2019-06-26T19:26:49.407Z,60.60
2019-06-26T19:29:21.180Z,59.60
2019-06-26T19:31:54.148Z,59.10
2019-06-26T19:34:26.195Z,58.10
2019-06-26T19:36:58.479Z,57.80
2019-06-26T19:39:31.228Z,57.40
2019-06-26T19:42:03.419Z,57.40
2019-06-26T19:44:36.059Z,57.60
2019-06-26T19:47:08.929Z,57.70
2019-06-26T19:49:41.562Z,57.40
2019-06-26T19:52:13.989Z,57.30
2019-06-26T19:54:46.458Z,57.30
2019-06-26T19:57:18.256Z,56.70
2019-06-26T19:59:50.318Z,56.60
2019-06-26T20:02:23.403Z,56.20
2019-06-26T20:04:56.075Z,56.10
2019-06-26T20:07:28.515Z,56.30
2019-06-26T20:10:01.836Z,56.40
2019-06-26T20:12:33.919Z,56.60
2019-06-26T20:15:06.953Z,57.30
2019-06-26T20:17:39.637Z,57.90
2019-06-26T20:20:13.030Z,58.20
2019-06-26T20:22:45.329Z,58.60
2019-06-26T20:25:17.438Z,58.90
2019-06-26T20:27:56.682Z,59.20
2019-06-26T20:30:26.830Z,59.40
2019-06-26T20:32:58.533Z,61.00
2019-06-26T20:35:31.942Z,61.20
2019-06-26T20:38:04.603Z,61.60
2019-06-26T20:40:37.018Z,61.70
2019-06-26T20:43:09.888Z,62.30
2019-06-26T20:45:42.332Z,62.90
2019-06-26T20:48:14.509Z,63.00
2019-06-26T20:50:47.488Z,63.20
2019-06-26T20:53:19.795Z,63.10
2019-06-26T20:55:51.392Z,63.00
2019-06-26T20:58:24.979Z,63.30
2019-06-26T21:00:57.274Z,63.60
2019-06-26T21:03:30.255Z,63.40
2019-06-26T21:06:02.968Z,63.60
2019-06-26T21:08:36.286Z,63.80
2019-06-26T21:11:08.884Z,64.10
2019-06-26T21:13:41.530Z,64.20
2019-06-26T21:16:14.624Z,64.40
2019-06-26T21:18:47.154Z,64.40
2019-06-26T21:21:19.584Z,64.40
2019-06-26T21:23:52.594Z,64.70
2019-06-26T21:26:25.967Z,64.50
2019-06-26T21:29:00.865Z,64.40
2019-06-26T21:31:33.362Z,64.60
2019-06-26T21:34:06.174Z,64.80
2019-06-26T21:36:37.990Z,65.10
2019-06-26T21:39:11.423Z,65.30
2019-06-26T21:41:44.708Z,65.90
2019-06-26T21:44:17.253Z,66.40
2019-06-26T21:46:49.565Z,66.40
2019-06-26T21:49:22.519Z,67.30
2019-06-26T21:51:55.554Z,67.40
2019-06-26T21:54:27.198Z,67.80
2019-06-26T21:57:00.175Z,68.10
2019-06-26T21:59:33.048Z,68.90
2019-06-26T22:02:05.663Z,69.60
2019-06-26T22:04:37.783Z,70.00
2019-06-26T22:07:11.499Z,70.20
2019-06-26T22:09:44.313Z,70.20
2019-06-26T22:12:16.224Z,70.60
2019-06-26T22:14:49.005Z,70.50
2019-06-26T22:17:21.779Z,70.70
2019-06-26T22:19:54.088Z,70.90
2019-06-26T22:22:26.458Z,71.30
2019-06-26T22:24:59.238Z,71.00
2019-06-26T22:27:30.563Z,70.60
2019-06-26T22:30:03.933Z,70.60
2019-06-26T22:32:37.687Z,71.20
2019-06-26T22:35:10.574Z,70.90
2019-06-26T22:37:43.023Z,71.30
2019-06-26T22:40:16.093Z,71.00
2019-06-26T22:42:48.878Z,70.80
2019-06-26T22:45:21.928Z,70.70
2019-06-26T22:47:54.198Z,70.70
2019-06-26T22:50:26.581Z,70.50
2019-06-26T22:52:59.400Z,70.20
2019-06-26T22:55:33.250Z,69.50
2019-06-26T22:58:06.188Z,69.30
2019-06-26T23:00:38.855Z,70.00
2019-06-26T23:03:11.589Z,69.60
2019-06-26T23:05:43.905Z,69.80
2019-06-26T23:08:16.101Z,70.20
2019-06-26T23:10:48.975Z,70.30
2019-06-26T23:13:20.575Z,70.40
2019-06-26T23:15:53.634Z,70.60
2019-06-26T23:18:26.689Z,70.90
2019-06-26T23:20:58.909Z,71.10
2019-06-26T23:23:31.310Z,71.10
2019-06-26T23:26:03.265Z,71.40
2019-06-26T23:28:35.739Z,71.70
2019-06-26T23:31:08.055Z,72.20
2019-06-26T23:33:40.394Z,72.40
2019-06-26T23:36:13.224Z,72.70
2019-06-26T23:38:46.314Z,72.80
2019-06-26T23:41:18.624Z,72.80
2019-06-26T23:43:51.264Z,73.00
2019-06-26T23:46:24.284Z,72.40
2019-06-26T23:48:56.204Z,71.60
2019-06-26T23:51:28.776Z,71.70
2019-06-26T23:54:02.019Z,72.30
2019-06-26T23:56:40.289Z,72.80
2019-06-26T23:59:09.984Z,73.00
